This is the latest recevied weather packets stored in our database for station/object OK1SK-13. If no packets are shown the sender has not sent any weather packets the latest 10 day(s).
| Time | Temp. | Humidity | Pressure | Rain* | Wind** | Luminosity | Snow |
|---|---|---|---|---|---|---|---|
| 1777443048 | 17.22° C | 67% | 1023.6 hPa | - | - | - | - |
| 1777442151 | 17.22° C | 67% | 1023.4 hPa | - | - | - | - |
| 1777441253 | 17.22° C | 67% | 1023.3 hPa | - | - | - | - |
| 1777440355 | 17.22° C | 67% | 1023.2 hPa | - | - | - | - |
| 1777439457 | 17.22° C | 67% | 1022.9 hPa | - | - | - | - |
| 1777438558 | 17.22° C | 67% | 1022.8 hPa | - | - | - | - |
| 1777434069 | 17.78° C | 68% | 1022.2 hPa | - | - | - | - |
| 1777432272 | 17.78° C | 67% | 1022.2 hPa | - | - | - | - |
| 1777427781 | 17.78° C | 67% | 1021.9 hPa | - | - | - | - |
| 1777426883 | 17.78° C | 67% | 1021.8 hPa | - | - | - | - |
| 1777408024 | 17.78° C | 63% | 1020.6 hPa | - | - | - | - |
| 1777405331 | 17.78° C | 63% | 1020.4 hPa | - | - | - | - |
| 1777404433 | 17.78° C | 62% | 1020.4 hPa | - | - | - | - |
| 1777402637 | 17.78° C | 62% | 1020.2 hPa | - | - | - | - |
| 1777399945 | 17.78° C | 61% | 1019.4 hPa | - | - | - | - |
| 1777398149 | 17.78° C | 59% | 1019.2 hPa | - | - | - | - |
| 1777397251 | 17.78° C | 59% | 1019 hPa | - | - | - | - |
| 1777390066 | 18.33° C | 61% | 1018.8 hPa | - | - | - | - |
| 1777388270 | 18.33° C | 61% | 1018.9 hPa | - | - | - | - |
| 1777387372 | 18.33° C | 60% | 1019 hPa | - | - | - | - |
| 1777386473 | 18.89° C | 59% | 1019 hPa | - | - | - | - |
| 1777383778 | 17.78° C | 62% | 1019.3 hPa | - | - | - | - |
| 1777381981 | 17.78° C | 63% | 1019.7 hPa | - | - | - | - |
| 1777381083 | 17.78° C | 63% | 1019.7 hPa | - | - | - | - |
| 1777380185 | 17.78° C | 64% | 1019.7 hPa | - | - | - | - |
* Rain since midnight (hover to see other rain measurements)
** Current wind speed in m/s (hover to see current wind gust speed)